createdAt,value
2022-12-23T00:02:37.195Z,100208.63
2022-12-23T00:17:43.261Z,100214.41
2022-12-23T00:32:45.386Z,100190.91
2022-12-23T00:48:06.807Z,100171.25
2022-12-23T01:03:31.030Z,100168.88
2022-12-23T01:18:35.193Z,100147.66
2022-12-23T01:33:37.474Z,100135.63
2022-12-23T01:48:41.975Z,100095.50
2022-12-23T02:03:45.769Z,100075.78
2022-12-23T02:18:56.508Z,100083.91
2022-12-23T02:34:11.119Z,100059.75
2022-12-23T02:49:18.507Z,100068.94
2022-12-23T03:04:20.415Z,100052.50
2022-12-23T03:19:33.764Z,100050.97
2022-12-23T03:34:40.393Z,100057.81
2022-12-23T03:49:58.290Z,100048.38
2022-12-23T04:05:40.313Z,100061.53
2022-12-23T07:41:04.913Z,99937.81
2022-12-23T07:56:06.996Z,100015.81
2022-12-23T08:11:11.178Z,100051.81
2022-12-23T08:26:17.456Z,100088.72
2022-12-23T08:41:23.751Z,100068.22
2022-12-23T08:56:28.207Z,100094.88
2022-12-23T09:11:30.382Z,100053.06
2022-12-23T09:26:32.798Z,100040.72
2022-12-23T09:41:52.921Z,100017.00
2022-12-23T09:57:18.863Z,99997.13
2022-12-23T10:12:39.518Z,99983.69
2022-12-23T10:27:43.999Z,99987.88
2022-12-23T10:43:10.686Z,99955.59
2022-12-23T10:58:16.385Z,99949.03
2022-12-23T11:13:26.029Z,99973.25
2022-12-23T11:28:31.851Z,99947.84
2022-12-23T11:43:34.847Z,99952.66
2022-12-23T11:58:53.639Z,99962.16
2022-12-23T12:14:03.975Z,99969.88
2022-12-23T12:29:18.191Z,99972.84
2022-12-23T12:44:47.383Z,99962.78
2022-12-23T13:00:03.625Z,99959.72
2022-12-23T16:31:10.136Z,99728.22
2022-12-23T16:46:47.035Z,99774.44
2022-12-23T17:01:49.694Z,99815.25
2022-12-23T17:16:52.001Z,99817.25
2022-12-23T17:31:54.725Z,99812.00
2022-12-23T17:46:58.345Z,99808.44
2022-12-23T18:02:00.213Z,99811.84
2022-12-23T18:17:02.362Z,99822.75
2022-12-23T18:32:05.900Z,99825.19
2022-12-23T18:47:08.475Z,99799.13
2022-12-23T19:02:14.407Z,99808.13
2022-12-23T19:17:17.679Z,99814.09
2022-12-23T19:32:19.704Z,99812.41
2022-12-23T19:47:21.701Z,99815.53
2022-12-23T20:02:23.746Z,99824.81
2022-12-23T20:17:25.868Z,99835.72
2022-12-23T20:32:28.085Z,99827.28
2022-12-23T20:47:30.049Z,99822.63
2022-12-23T21:02:31.883Z,99830.56
2022-12-23T21:17:33.898Z,99781.84
2022-12-23T21:32:36.396Z,99774.81
2022-12-23T21:47:38.211Z,99782.72
2022-12-23T22:02:40.105Z,99754.56
